createdAt,value
2019-05-25T00:04:12.582Z,99053.72
2019-05-25T00:09:15.919Z,99057.19
2019-05-25T00:14:18.962Z,99049.28
2019-05-25T00:19:22.048Z,99049.23
2019-05-25T00:24:25.400Z,99050.00
2019-05-25T00:29:28.627Z,99053.27
2019-05-25T00:34:31.968Z,99049.58
2019-05-25T00:39:35.147Z,99049.06
2019-05-25T00:44:38.485Z,99049.76
2019-05-25T00:49:41.577Z,99044.84
2019-05-25T00:54:44.680Z,99046.41
2019-05-25T00:59:47.743Z,99043.28
2019-05-25T01:04:51.008Z,99055.63
2019-05-25T01:09:53.983Z,99058.38
2019-05-25T01:14:57.071Z,99052.50
2019-05-25T01:20:00.366Z,99056.48
2019-05-25T01:25:04.249Z,99058.38
2019-05-25T01:30:09.077Z,99052.36
2019-05-25T01:35:12.056Z,99058.80
2019-05-25T01:40:15.993Z,99052.41
2019-05-25T01:45:19.148Z,99049.63
2019-05-25T01:50:22.352Z,99050.84
2019-05-25T01:55:25.469Z,99050.22
2019-05-25T02:00:28.566Z,99043.42
2019-05-25T02:05:31.789Z,99052.63
2019-05-25T02:10:35.001Z,99055.20
2019-05-25T02:15:38.102Z,99051.69
2019-05-25T02:20:41.125Z,99046.00
2019-05-25T02:25:44.325Z,99048.22
2019-05-25T02:30:47.534Z,99048.31
2019-05-25T02:35:50.510Z,99053.61
2019-05-25T02:40:53.693Z,99063.59
2019-05-25T02:45:56.763Z,99065.43
2019-05-25T02:50:59.861Z,99062.58
2019-05-25T02:56:03.540Z,99064.58
2019-05-25T03:01:07.121Z,99069.53
2019-05-25T03:06:10.481Z,99073.42
2019-05-25T03:11:14.184Z,99078.04
2019-05-25T03:16:17.415Z,99079.13
2019-05-25T03:21:20.661Z,99084.71
2019-05-25T03:26:23.770Z,99087.92
2019-05-25T03:31:26.821Z,99084.25
2019-05-25T03:36:29.997Z,99092.84
2019-05-25T03:41:33.005Z,99098.22
2019-05-25T03:46:36.312Z,99093.16
2019-05-25T03:51:39.416Z,99090.77
2019-05-25T03:56:42.883Z,99092.53
2019-05-25T04:01:46.349Z,99100.66
2019-05-25T04:06:49.278Z,99106.94
2019-05-25T04:11:52.632Z,99106.28
2019-05-25T04:16:55.698Z,99104.75
2019-05-25T04:21:58.660Z,99113.16
2019-05-25T04:27:01.802Z,99108.56
2019-05-25T04:32:05.162Z,99112.75
2019-05-25T04:37:08.315Z,99109.89
2019-05-25T04:42:11.385Z,99115.00
2019-05-25T04:47:26.668Z,99117.78
2019-05-25T04:52:19.859Z,99120.42
2019-05-25T04:57:22.993Z,99125.94
2019-05-25T05:02:26.262Z,99126.34
2019-05-25T05:07:29.225Z,99131.02
2019-05-25T05:12:32.320Z,99137.56
2019-05-25T05:17:35.650Z,99145.39
2019-05-25T05:22:38.925Z,99149.16
2019-05-25T05:27:42.055Z,99145.58
2019-05-25T05:32:45.282Z,99141.03
2019-05-25T05:37:48.593Z,99139.48
2019-05-25T05:42:54.318Z,99144.16
2019-05-25T05:48:00.363Z,99146.53
2019-05-25T05:53:03.644Z,99149.84
2019-05-25T05:58:07.731Z,99142.21
2019-05-25T06:03:11.295Z,99143.73
2019-05-25T06:08:14.500Z,99143.88
2019-05-25T06:13:17.614Z,99145.48
2019-05-25T06:18:20.713Z,99140.20
2019-05-25T06:23:24.126Z,99140.45
2019-05-25T06:28:27.254Z,99142.84
2019-05-25T06:33:30.236Z,99141.25
2019-05-25T06:38:33.550Z,99143.11
2019-05-25T06:43:36.718Z,99143.94
2019-05-25T06:48:39.886Z,99131.33
2019-05-25T06:53:43.080Z,99140.19
2019-05-25T06:58:46.129Z,99136.46
2019-05-25T07:03:49.098Z,99144.14
2019-05-25T07:08:52.190Z,99137.77
2019-05-25T07:13:55.324Z,99142.64
2019-05-25T07:18:58.740Z,99144.05
2019-05-25T07:24:03.198Z,99148.91
2019-05-25T07:29:06.660Z,99147.11
2019-05-25T07:34:09.682Z,99146.59
2019-05-25T07:39:13.314Z,99149.32
2019-05-25T07:44:16.426Z,99143.69
2019-05-25T07:49:19.653Z,99150.41
2019-05-25T07:54:22.640Z,99146.42
2019-05-25T07:59:25.770Z,99155.25
2019-05-25T08:04:29.080Z,99147.48
2019-05-25T08:09:32.043Z,99145.56
2019-05-25T08:14:35.123Z,99148.45
2019-05-25T08:19:38.205Z,99141.16
2019-05-25T08:24:41.264Z,99131.77
2019-05-25T08:29:44.394Z,99132.47
2019-05-25T08:34:48.355Z,99136.34
2019-05-25T08:39:51.360Z,99140.38
2019-05-25T08:44:54.428Z,99129.83
2019-05-25T08:49:57.965Z,99130.64
2019-05-25T08:55:00.983Z,99131.63
2019-05-25T09:00:05.999Z,99137.45
2019-05-25T09:05:09.762Z,99148.88
2019-05-25T09:10:13.167Z,99145.33
2019-05-25T09:15:17.535Z,99146.11
2019-05-25T09:20:20.661Z,99146.67
2019-05-25T09:25:23.943Z,99140.45
2019-05-25T09:30:27.139Z,99140.50
2019-05-25T09:35:30.331Z,99125.53
2019-05-25T09:40:33.515Z,99132.81
2019-05-25T09:45:36.863Z,99137.26
2019-05-25T09:50:40.245Z,99150.00
2019-05-25T09:55:43.342Z,99132.39
2019-05-25T10:00:46.344Z,99138.52
2019-05-25T10:05:50.727Z,99135.76
2019-05-25T10:10:53.886Z,99136.38
2019-05-25T10:15:57.046Z,99128.14
2019-05-25T10:21:00.226Z,99142.30
2019-05-25T10:26:03.467Z,99143.53
2019-05-25T10:31:06.741Z,99123.17
2019-05-25T10:36:09.854Z,99127.61
2019-05-25T10:41:13.110Z,99119.27
2019-05-25T10:46:16.212Z,99126.93
2019-05-25T10:51:19.446Z,99136.25
2019-05-25T10:56:22.621Z,99120.42
2019-05-25T11:01:25.718Z,99121.27
2019-05-25T11:06:29.156Z,99111.13
2019-05-25T11:11:32.297Z,99118.41
2019-05-25T11:16:35.485Z,99117.70
2019-05-25T11:21:38.772Z,99100.98
2019-05-25T11:26:41.820Z,99094.23
2019-05-25T11:31:54.618Z,99099.33
2019-05-25T11:36:50.245Z,99089.35
2019-05-25T11:41:53.373Z,99100.02
2019-05-25T11:46:56.684Z,99083.83
2019-05-25T11:52:00.211Z,99080.97
2019-05-25T11:57:03.421Z,99090.45
2019-05-25T12:02:06.653Z,99090.06
2019-05-25T12:07:09.718Z,99082.48
2019-05-25T12:12:13.203Z,99074.95
2019-05-25T12:17:16.223Z,99080.42
2019-05-25T12:22:19.356Z,99075.45
2019-05-25T12:27:22.478Z,99082.05
2019-05-25T12:32:25.716Z,99089.91
2019-05-25T12:37:29.000Z,99069.78
2019-05-25T12:42:32.098Z,99067.47
2019-05-25T12:47:35.177Z,99071.88
2019-05-25T12:52:38.575Z,99064.69
2019-05-25T12:57:41.658Z,99068.24
2019-05-25T13:02:46.195Z,99061.17
2019-05-25T13:07:49.366Z,99047.77
2019-05-25T13:12:53.443Z,99043.16
2019-05-25T13:17:56.483Z,99035.96
2019-05-25T13:22:59.536Z,99036.75
2019-05-25T13:28:02.534Z,99041.36
2019-05-25T13:33:05.680Z,99027.63
2019-05-25T13:38:10.799Z,99024.79
2019-05-25T13:43:13.934Z,99043.16
2019-05-25T13:48:17.317Z,99036.37
2019-05-25T13:53:20.546Z,99049.52
2019-05-25T13:58:23.789Z,99040.91
2019-05-25T14:03:26.877Z,99032.39
2019-05-25T14:08:29.984Z,99034.14
2019-05-25T14:13:33.093Z,99038.39
2019-05-25T14:18:36.288Z,99037.06
2019-05-25T14:23:39.411Z,99034.05
2019-05-25T14:28:42.576Z,99031.02
2019-05-25T14:33:45.661Z,99038.23
2019-05-25T14:38:48.632Z,99032.59
2019-05-25T14:43:51.610Z,99036.52
2019-05-25T14:48:54.576Z,99030.52
2019-05-25T14:53:57.581Z,99030.58
2019-05-25T14:59:00.657Z,99042.58
2019-05-25T15:04:03.785Z,99043.80
2019-05-25T15:09:07.068Z,99050.84
2019-05-25T15:14:10.000Z,99051.46
2019-05-25T15:19:13.083Z,99050.31
2019-05-25T15:24:16.170Z,99051.22
2019-05-25T15:29:19.223Z,99050.84
2019-05-25T15:34:22.225Z,99050.20
2019-05-25T15:39:25.242Z,99049.19
2019-05-25T15:44:28.181Z,99046.84
2019-05-25T15:49:33.664Z,99050.88
2019-05-25T15:54:35.999Z,99038.55
2019-05-25T15:59:39.054Z,99041.31
2019-05-25T16:04:42.184Z,99045.67
2019-05-25T16:09:45.218Z,99040.45
2019-05-25T16:14:48.199Z,99044.91
2019-05-25T16:19:51.315Z,99037.67
2019-05-25T16:24:54.390Z,99040.98
2019-05-25T16:29:57.710Z,99049.19
2019-05-25T16:35:00.737Z,99039.81
2019-05-25T16:40:04.034Z,99039.77
2019-05-25T16:45:07.597Z,99041.74
2019-05-25T16:50:14.952Z,99043.86
2019-05-25T16:55:17.929Z,99047.07
2019-05-25T17:00:30.015Z,99050.56
2019-05-25T17:05:32.956Z,99055.86
2019-05-25T17:10:36.029Z,99052.99
2019-05-25T17:15:39.140Z,99051.28
2019-05-25T17:20:42.102Z,99059.75
2019-05-25T17:25:45.071Z,99051.33
2019-05-25T17:30:48.165Z,99058.70
2019-05-25T17:35:51.402Z,99057.38
2019-05-25T17:40:54.386Z,99064.37
2019-05-25T17:45:57.390Z,99062.23
2019-05-25T17:51:00.398Z,99063.35
2019-05-25T17:56:03.723Z,99079.77
2019-05-25T18:01:06.673Z,99068.18
2019-05-25T18:06:09.668Z,99077.52
2019-05-25T18:11:12.612Z,99090.89
2019-05-25T18:16:15.618Z,99097.61
2019-05-25T18:21:18.697Z,99090.81
2019-05-25T18:26:21.674Z,99095.42
2019-05-25T18:31:25.012Z,99096.58
2019-05-25T18:36:27.974Z,99101.98
2019-05-25T18:41:31.056Z,99099.38
2019-05-25T18:46:34.096Z,99101.73
2019-05-25T18:51:37.192Z,99109.50
2019-05-25T18:56:40.287Z,99112.66
2019-05-25T19:01:43.625Z,99119.30
2019-05-25T19:06:46.725Z,99121.66
2019-05-25T19:11:49.875Z,99133.78
2019-05-25T19:16:52.977Z,99140.23
2019-05-25T19:21:56.111Z,99145.99
2019-05-25T19:26:59.382Z,99146.65
2019-05-25T19:32:02.479Z,99145.25
2019-05-25T19:37:05.452Z,99150.56
2019-05-25T19:42:08.825Z,99163.05
2019-05-25T19:47:11.798Z,99162.32
2019-05-25T19:52:14.967Z,99167.30
2019-05-25T19:57:18.092Z,99168.45
2019-05-25T20:02:21.246Z,99165.98
2019-05-25T20:07:24.678Z,99171.84
2019-05-25T20:12:28.072Z,99167.86
2019-05-25T20:17:31.406Z,99173.95
2019-05-25T20:22:34.658Z,99174.81
2019-05-25T20:27:37.754Z,99172.63
2019-05-25T20:32:40.887Z,99174.12
2019-05-25T20:37:44.336Z,99176.67
2019-05-25T20:42:47.806Z,99187.69
2019-05-25T20:47:51.082Z,99190.95
2019-05-25T20:52:54.521Z,99193.61
2019-05-25T20:57:57.690Z,99197.12
2019-05-25T21:03:06.321Z,99198.11
2019-05-25T21:08:06.050Z,99199.73
2019-05-25T21:13:09.393Z,99214.58
2019-05-25T21:18:12.625Z,99212.40
2019-05-25T21:23:15.740Z,99211.96
2019-05-25T21:28:18.863Z,99210.38
2019-05-25T21:33:21.959Z,99216.58
2019-05-25T21:38:24.985Z,99216.99
2019-05-25T21:43:28.052Z,99218.70
2019-05-25T21:48:31.111Z,99217.20
2019-05-25T21:53:34.174Z,99221.41
2019-05-25T21:58:37.368Z,99220.84
2019-05-25T22:03:40.456Z,99222.45
2019-05-25T22:08:43.443Z,99221.97
2019-05-25T22:13:47.010Z,99219.16
2019-05-25T22:18:50.268Z,99233.14
2019-05-25T22:23:53.461Z,99235.89
2019-05-25T22:28:56.595Z,99230.78
2019-05-25T22:33:59.909Z,99240.19
2019-05-25T22:39:03.917Z,99236.62
2019-05-25T22:44:07.021Z,99238.39
2019-05-25T22:49:10.119Z,99229.55
2019-05-25T22:54:13.255Z,99223.37
2019-05-25T22:59:16.560Z,99227.36
2019-05-25T23:04:19.630Z,99226.23
2019-05-25T23:09:22.749Z,99231.99
2019-05-25T23:14:26.177Z,99229.05
2019-05-25T23:19:29.249Z,99235.89
2019-05-25T23:24:32.378Z,99231.44
2019-05-25T23:29:35.515Z,99232.27
2019-05-25T23:34:38.576Z,99222.47
2019-05-25T23:39:41.722Z,99225.99
2019-05-25T23:44:44.822Z,99213.37
2019-05-25T23:49:47.912Z,99232.28
2019-05-25T23:54:50.915Z,99230.78
2019-05-25T23:59:53.976Z,99223.52
